Time;durP1;ratioP1;P1;durP2;ratioP2;P2;SDS_P1;SDS_P2;PMS_P1;PMS_P2;Temp;Humidity;BMP_temperature;BMP_pressure;BME280_temperature;BME280_humidity;BME280_pressure;Samples;Min_cycle;Max_cycle;Signal;HPM_P1;HPM_P2
2023/01/22 00:02:01;;;;;;;18.67;10.07;;;-1.30;99.90;;;;;;6234710;23;20239;-83
2023/01/22 00:04:27;;;;;;;29.95;14.93;;;-1.30;99.90;;;;;;6228504;23;20177;-85
2023/01/22 00:06:53;;;;;;;31.73;15.27;;;-1.20;99.90;;;;;;6232058;23;20149;-82
2023/01/22 00:09:21;;;;;;;22.00;11.93;;;-1.30;99.90;;;;;;6232947;23;20210;-84
2023/01/22 00:11:47;;;;;;;25.65;12.63;;;-1.30;99.90;;;;;;6240443;23;20153;-85
2023/01/22 00:14:13;;;;;;;24.98;12.02;;;-1.30;99.90;;;;;;6236342;22;20187;-85
2023/01/22 00:16:40;;;;;;;21.77;11.03;;;-1.30;99.90;;;;;;6254695;23;20141;-83
2023/01/22 00:19:06;;;;;;;25.40;10.57;;;-1.20;99.90;;;;;;6237270;22;20137;-83
2023/01/22 00:21:31;;;;;;;24.67;12.07;;;-1.20;99.90;;;;;;6234386;23;20152;-84
2023/01/22 00:23:57;;;;;;;22.83;10.80;;;-1.20;99.90;;;;;;6246602;22;20427;-83
2023/01/22 00:26:22;;;;;;;31.00;11.10;;;-1.20;99.90;;;;;;6236276;23;20149;-86
2023/01/22 00:28:48;;;;;;;25.83;10.87;;;-1.10;99.90;;;;;;6242806;23;20525;-84
2023/01/22 00:31:14;;;;;;;19.33;10.90;;;-1.20;99.90;;;;;;6241717;23;20159;-85
2023/01/22 00:33:41;;;;;;;20.50;10.15;;;-1.20;99.90;;;;;;6242311;22;20190;-86
2023/01/22 00:36:10;;;;;;;18.67;10.27;;;-1.20;99.90;;;;;;6230289;23;20152;-83
2023/01/22 00:38:36;;;;;;;19.40;9.52;;;-1.10;99.90;;;;;;6238623;23;20277;-82
2023/01/22 00:41:03;;;;;;;23.40;11.50;;;-1.10;99.90;;;;;;6239631;23;20625;-84
2023/01/22 00:43:29;;;;;;;20.92;10.15;;;-1.10;99.90;;;;;;6240438;22;20499;-82
2023/01/22 00:45:55;;;;;;;24.13;12.77;;;-1.10;99.90;;;;;;6238297;23;20160;-85
2023/01/22 00:48:20;;;;;;;27.07;12.47;;;-1.10;99.90;;;;;;6241772;23;20490;-85
2023/01/22 00:50:46;;;;;;;20.43;9.60;;;-0.90;99.90;;;;;;6240555;23;20499;-85
2023/01/22 00:53:11;;;;;;;15.10;9.23;;;-1.00;99.90;;;;;;6239515;23;20188;-86
2023/01/22 00:55:37;;;;;;;23.30;12.40;;;-1.00;99.90;;;;;;6239709;23;20958;-84
2023/01/22 00:58:03;;;;;;;22.83;12.30;;;-1.00;99.90;;;;;;6239956;23;20145;-85
2023/01/22 01:00:28;;;;;;;22.13;12.10;;;-1.00;99.90;;;;;;6239173;23;20197;-85
2023/01/22 01:05:38;;;;;;;22.42;12.25;;;-1.00;99.90;;;;;;6238938;23;20145;-84
2023/01/22 01:08:04;;;;;;;23.20;10.87;;;-1.10;99.90;;;;;;6239902;23;20156;-84
2023/01/22 01:10:29;;;;;;;25.48;12.27;;;-1.00;99.90;;;;;;6237419;23;20164;-84
2023/01/22 01:12:55;;;;;;;24.50;11.90;;;-1.00;99.90;;;;;;6235806;23;20291;-86
2023/01/22 01:15:21;;;;;;;21.50;12.07;;;-1.00;99.90;;;;;;6237651;23;20140;-84
2023/01/22 01:17:46;;;;;;;22.53;11.33;;;-1.00;99.90;;;;;;6247189;23;20156;-81
2023/01/22 01:20:12;;;;;;;23.67;11.63;;;-0.90;99.90;;;;;;6253122;23;20816;-83
2023/01/22 01:22:37;;;;;;;22.80;11.03;;;-0.90;99.90;;;;;;6243609;23;20161;-81
2023/01/22 01:25:04;;;;;;;22.27;11.63;;;-1.00;99.90;;;;;;6239531;23;20571;-83
2023/01/22 01:27:31;;;;;;;25.60;10.20;;;-1.00;99.90;;;;;;6237414;23;20203;-82
2023/01/22 01:29:57;;;;;;;22.33;12.13;;;-1.00;99.90;;;;;;6238343;23;20191;-82
2023/01/22 01:32:23;;;;;;;23.48;11.65;;;-0.90;99.90;;;;;;6238252;23;20184;-83
2023/01/22 01:34:48;;;;;;;28.20;12.40;;;-0.90;99.90;;;;;;6238934;23;20179;-84
2023/01/22 01:37:15;;;;;;;22.23;13.50;;;-0.90;99.90;;;;;;6241283;23;20376;-84
2023/01/22 01:39:40;;;;;;;26.75;11.57;;;-0.80;99.90;;;;;;6256249;22;20167;-84
2023/01/22 01:42:06;;;;;;;24.60;12.17;;;-0.80;99.90;;;;;;6241941;23;20168;-83
2023/01/22 01:44:32;;;;;;;24.60;11.60;;;-0.80;99.90;;;;;;6236465;23;20185;-82
2023/01/22 01:47:04;;;;;;;22.73;11.60;;;-0.80;99.90;;;;;;6238449;23;20667;-82
2023/01/22 01:49:47;;;;;;;21.95;11.75;;;-0.80;99.90;;;;;;6241605;23;20861;-82
2023/01/22 01:52:13;;;;;;;22.65;12.32;;;-0.70;99.90;;;;;;6241685;22;20144;-82
2023/01/22 01:54:43;;;;;;;19.80;11.45;;;-0.70;99.90;;;;;;6238211;23;20839;-84
2023/01/22 01:57:13;;;;;;;20.48;11.57;;;-0.60;99.90;;;;;;6238391;23;20172;-83
2023/01/22 01:59:41;;;;;;;25.00;11.93;;;-0.60;99.90;;;;;;6239039;22;20191;-81
2023/01/22 02:02:07;;;;;;;22.65;10.50;;;-0.60;99.90;;;;;;6235896;23;20591;-84
2023/01/22 02:04:33;;;;;;;18.63;10.70;;;-0.70;99.90;;;;;;6233600;23;20263;-83
2023/01/22 02:06:58;;;;;;;22.77;11.27;;;-0.70;99.90;;;;;;6230055;23;20152;-84
2023/01/22 02:09:24;;;;;;;24.47;10.80;;;-0.70;99.90;;;;;;6236205;23;20246;-83
2023/01/22 02:11:50;;;;;;;19.77;11.23;;;-0.80;99.90;;;;;;6232479;23;20164;-84
2023/01/22 02:14:20;;;;;;;29.40;12.73;;;-0.70;99.90;;;;;;6236552;22;20188;-83
2023/01/22 02:16:45;;;;;;;18.65;11.45;;;-0.70;99.90;;;;;;6238700;22;20149;-83
2023/01/22 02:19:11;;;;;;;23.97;12.03;;;-0.70;99.90;;;;;;6249960;23;20153;-83
2023/01/22 02:21:42;;;;;;;20.40;12.23;;;-0.70;99.90;;;;;;6237384;23;20186;-83
2023/01/22 02:24:15;;;;;;;27.55;12.23;;;-0.70;99.90;;;;;;6237149;23;20172;-83
2023/01/22 02:26:43;;;;;;;26.27;11.77;;;-0.70;99.90;;;;;;6242481;23;20584;-83
2023/01/22 02:29:11;;;;;;;25.15;12.18;;;-0.70;99.90;;;;;;6234758;23;20160;-82
2023/01/22 02:31:38;;;;;;;19.92;11.48;;;-0.70;99.90;;;;;;6234987;23;20630;-83
2023/01/22 02:34:05;;;;;;;21.70;11.98;;;-0.70;99.90;;;;;;6237754;23;20196;-84
2023/01/22 02:36:33;;;;;;;16.10;10.15;;;-0.70;99.90;;;;;;6237481;23;20157;-82
2023/01/22 02:38:58;;;;;;;22.70;11.57;;;-0.70;99.90;;;;;;6240851;23;20243;-85
2023/01/22 02:41:26;;;;;;;24.10;10.90;;;-0.70;99.90;;;;;;6239581;23;20191;-85
2023/01/22 02:43:52;;;;;;;23.15;12.80;;;-0.70;99.90;;;;;;6236348;23;20198;-84
2023/01/22 02:46:18;;;;;;;22.08;11.68;;;-0.70;99.90;;;;;;6241036;22;20238;-84
2023/01/22 02:48:43;;;;;;;19.70;9.70;;;-0.70;99.90;;;;;;6241957;23;20152;-84
2023/01/22 02:51:09;;;;;;;22.83;10.37;;;-0.60;99.90;;;;;;6241424;23;20394;-85
2023/01/22 02:53:35;;;;;;;21.07;12.00;;;-0.70;99.90;;;;;;6242501;23;20184;-83
2023/01/22 02:56:05;;;;;;;20.63;12.03;;;-0.70;99.90;;;;;;6242701;23;20152;-83
2023/01/22 02:58:30;;;;;;;20.73;11.35;;;-0.70;99.90;;;;;;6243168;22;20132;-85
2023/01/22 03:00:56;;;;;;;24.13;12.30;;;-0.70;99.90;;;;;;6255056;22;20156;-83
2023/01/22 03:03:21;;;;;;;21.00;12.20;;;-0.70;99.90;;;;;;6238937;23;20173;-83
2023/01/22 03:05:51;;;;;;;17.13;10.73;;;-0.70;99.90;;;;;;6234024;23;20149;-83
2023/01/22 03:08:18;;;;;;;19.88;11.82;;;-0.60;99.90;;;;;;6242909;23;20243;-85
2023/01/22 03:10:44;;;;;;;22.15;12.40;;;-0.70;99.90;;;;;;6241498;23;20174;-86
2023/01/22 03:21:24;;;;;;;21.60;11.25;;;-0.70;99.90;;;;;;6241618;23;20714;-85
2023/01/22 03:23:52;;;;;;;27.27;12.50;;;-0.60;99.90;;;;;;6238692;23;20183;-84
2023/01/22 03:26:20;;;;;;;22.45;11.25;;;-0.60;99.90;;;;;;6241079;22;20499;-84
2023/01/22 03:28:46;;;;;;;23.23;12.32;;;-0.60;99.90;;;;;;6239360;23;20152;-86
2023/01/22 03:31:13;;;;;;;27.20;12.93;;;-0.60;99.90;;;;;;6237804;23;20162;-83
2023/01/22 03:33:39;;;;;;;26.10;13.43;;;-0.60;99.90;;;;;;6234176;23;20207;-82
2023/01/22 03:36:08;;;;;;;25.40;12.38;;;-0.70;99.90;;;;;;6236177;23;20164;-82
2023/01/22 03:38:34;;;;;;;23.55;12.80;;;-0.70;99.90;;;;;;6240060;22;20934;-83
2023/01/22 03:41:02;;;;;;;27.53;12.90;;;-0.60;99.90;;;;;;6242322;23;20156;-83
2023/01/22 03:43:27;;;;;;;26.63;13.48;;;-0.60;99.90;;;;;;6237589;23;20403;-82
2023/01/22 03:45:53;;;;;;;30.07;13.07;;;-0.50;99.90;;;;;;6244316;23;20188;-84
2023/01/22 03:48:18;;;;;;;22.73;12.00;;;-0.50;99.90;;;;;;6243083;23;20149;-85
2023/01/22 03:50:44;;;;;;;20.50;11.67;;;-0.50;99.90;;;;;;6240361;23;20251;-86
2023/01/22 03:53:09;;;;;;;24.60;12.10;;;-0.50;99.90;;;;;;6240263;23;20511;-83
2023/01/22 03:55:35;;;;;;;24.77;12.73;;;-0.50;99.90;;;;;;6238771;23;20144;-83
2023/01/22 03:58:00;;;;;;;28.90;13.47;;;-0.50;99.90;;;;;;6237207;23;20153;-85
2023/01/22 04:00:26;;;;;;;25.83;13.13;;;-0.50;99.90;;;;;;6239337;23;20591;-86
2023/01/22 04:02:52;;;;;;;22.43;13.10;;;-0.50;99.90;;;;;;6237258;23;20230;-86
2023/01/22 04:05:18;;;;;;;26.40;14.27;;;-0.50;99.90;;;;;;6237814;23;20164;-85
2023/01/22 04:07:43;;;;;;;27.73;13.77;;;-0.50;99.90;;;;;;6239210;23;20156;-83
2023/01/22 04:10:09;;;;;;;26.53;12.67;;;-0.40;99.90;;;;;;6239683;23;20595;-85
2023/01/22 04:12:35;;;;;;;27.17;12.85;;;-0.40;99.90;;;;;;6237172;23;20176;-81
2023/01/22 04:15:00;;;;;;;25.10;13.70;;;-0.40;99.90;;;;;;6239827;23;20282;-83
2023/01/22 04:17:26;;;;;;;25.60;14.90;;;-0.40;99.90;;;;;;6242512;23;20183;-83
2023/01/22 04:19:51;;;;;;;30.30;12.93;;;-0.40;99.90;;;;;;6265025;22;20160;-83
2023/01/22 04:22:17;;;;;;;25.63;13.27;;;-0.40;99.90;;;;;;6243004;23;20533;-85
2023/01/22 04:24:42;;;;;;;25.90;13.23;;;-0.40;99.90;;;;;;6241610;23;20175;-83
2023/01/22 04:27:08;;;;;;;30.03;13.50;;;-0.40;99.90;;;;;;6245109;23;20374;-85
2023/01/22 04:29:33;;;;;;;27.23;15.00;;;-0.40;99.90;;;;;;6243358;23;20164;-85
2023/01/22 04:31:59;;;;;;;23.17;12.67;;;-0.40;99.90;;;;;;6237554;23;20255;-84
2023/01/22 04:34:24;;;;;;;26.83;13.20;;;-0.40;99.90;;;;;;6237972;23;20184;-85
2023/01/22 04:36:50;;;;;;;31.50;14.17;;;-0.40;99.90;;;;;;6234225;23;20215;-84
2023/01/22 04:39:15;;;;;;;34.93;13.63;;;-0.40;99.90;;;;;;6238216;23;20152;-85
2023/01/22 04:41:41;;;;;;;25.77;14.63;;;-0.40;99.90;;;;;;6239750;23;20149;-83
2023/01/22 04:44:06;;;;;;;28.87;14.23;;;-0.30;99.90;;;;;;6238768;23;20187;-84
2023/01/22 04:46:32;;;;;;;23.03;12.33;;;-0.20;99.90;;;;;;6240004;23;20755;-84
2023/01/22 04:48:57;;;;;;;29.40;13.07;;;-0.30;99.90;;;;;;6239660;23;20186;-83
2023/01/22 04:51:23;;;;;;;27.63;13.80;;;-0.20;99.90;;;;;;6240846;23;20150;-85
2023/01/22 04:53:48;;;;;;;36.60;13.67;;;-0.30;99.90;;;;;;6238764;23;20193;-83
2023/01/22 04:56:14;;;;;;;26.13;12.70;;;-0.30;99.90;;;;;;6238629;23;20603;-82
2023/01/22 04:58:39;;;;;;;31.63;15.60;;;-0.40;99.90;;;;;;6239492;23;20164;-85
2023/01/22 05:01:05;;;;;;;33.07;15.10;;;-0.30;99.90;;;;;;6239471;23;20748;-85
2023/01/22 05:03:31;;;;;;;26.30;13.33;;;-0.30;99.90;;;;;;6241979;23;20206;-84
2023/01/22 05:06:00;;;;;;;28.90;14.75;;;-0.30;99.90;;;;;;6238717;23;20167;-83
2023/01/22 05:08:26;;;;;;;25.52;14.32;;;-0.30;99.90;;;;;;6238677;23;20209;-83
2023/01/22 05:10:51;;;;;;;29.40;14.57;;;-0.30;99.90;;;;;;6238988;23;20243;-86
2023/01/22 05:13:17;;;;;;;25.80;13.83;;;-0.20;99.90;;;;;;6250718;22;20169;-82
2023/01/22 05:15:42;;;;;;;37.33;14.70;;;-0.20;99.90;;;;;;6260081;22;20247;-85
2023/01/22 05:18:08;;;;;;;33.13;13.70;;;-0.20;99.90;;;;;;6243483;23;20672;-84
2023/01/22 05:20:33;;;;;;;31.33;14.33;;;-0.10;99.90;;;;;;6242277;23;20148;-83
2023/01/22 05:22:59;;;;;;;34.60;16.17;;;0.00;99.90;;;;;;6240889;23;20171;-82
2023/01/22 05:25:24;;;;;;;28.27;13.17;;;0.00;99.90;;;;;;6241638;23;20157;-83
2023/01/22 05:27:50;;;;;;;26.10;13.53;;;0.20;99.90;;;;;;6242150;23;20155;-86
2023/01/22 05:30:15;;;;;;;30.47;14.90;;;0.30;99.90;;;;;;6238806;23;20152;-83
2023/01/22 05:32:41;;;;;;;25.40;13.10;;;0.40;99.90;;;;;;6238844;23;20626;-85
2023/01/22 05:35:07;;;;;;;22.57;13.40;;;0.30;99.90;;;;;;6251236;22;20411;-83
2023/01/22 05:37:32;;;;;;;23.57;13.23;;;0.40;99.90;;;;;;6240871;22;20582;-84
2023/01/22 05:39:58;;;;;;;27.77;12.40;;;0.30;99.90;;;;;;6240590;23;20195;-84
2023/01/22 05:42:24;;;;;;;25.37;13.40;;;0.30;99.90;;;;;;6238328;23;20176;-83
2023/01/22 05:44:49;;;;;;;27.20;14.70;;;0.30;99.90;;;;;;6238553;23;20181;-84
2023/01/22 05:47:16;;;;;;;22.93;13.20;;;0.50;99.90;;;;;;6240712;23;20379;-85
2023/01/22 05:49:41;;;;;;;28.90;13.57;;;0.40;99.90;;;;;;6238448;23;20648;-84
2023/01/22 05:52:09;;;;;;;23.63;11.93;;;0.30;99.90;;;;;;6237626;23;20240;-84
2023/01/22 05:54:36;;;;;;;31.83;15.18;;;0.30;99.90;;;;;;6238422;23;20181;-83
2023/01/22 05:57:01;;;;;;;27.25;12.85;;;0.30;99.90;;;;;;6236956;22;20145;-84
2023/01/22 05:59:27;;;;;;;35.93;13.97;;;0.20;99.90;;;;;;6236729;23;20505;-85
2023/01/22 06:01:53;;;;;;;29.60;15.70;;;0.30;99.90;;;;;;6239094;23;20883;-82
2023/01/22 06:04:18;;;;;;;29.20;15.30;;;0.20;99.90;;;;;;6241938;22;20172;-82
2023/01/22 06:06:44;;;;;;;33.00;14.73;;;0.20;99.90;;;;;;6240690;23;20152;-83
2023/01/22 06:09:12;;;;;;;25.63;12.90;;;0.20;99.90;;;;;;6235223;23;20157;-81
2023/01/22 06:11:37;;;;;;;26.90;14.57;;;0.20;99.90;;;;;;6240337;22;20149;-83
2023/01/22 06:14:03;;;;;;;29.80;13.80;;;0.20;99.90;;;;;;6238757;23;20195;-83
2023/01/22 06:16:28;;;;;;;31.97;14.10;;;0.10;99.90;;;;;;6240019;23;20172;-82
2023/01/22 06:18:53;;;;;;;30.27;13.80;;;0.10;99.90;;;;;;6240333;23;20165;-82
2023/01/22 06:21:19;;;;;;;23.70;14.00;;;0.10;99.90;;;;;;6251057;22;20865;-85
2023/01/22 06:23:44;;;;;;;32.17;14.07;;;0.30;99.90;;;;;;6246516;23;20172;-84
2023/01/22 06:26:10;;;;;;;28.23;14.83;;;0.50;99.90;;;;;;6240715;23;20183;-84
2023/01/22 06:28:35;;;;;;;25.97;13.83;;;0.60;99.90;;;;;;6243678;23;20393;-82
2023/01/22 06:31:04;;;;;;;24.43;13.13;;;0.60;99.90;;;;;;6239313;23;20161;-82
2023/01/22 06:33:33;;;;;;;25.80;13.73;;;0.70;99.90;;;;;;6244427;23;20196;-82
2023/01/22 06:36:00;;;;;;;21.63;13.50;;;0.70;99.90;;;;;;6242105;23;20837;-84
2023/01/22 06:38:26;;;;;;;27.77;14.18;;;0.70;99.90;;;;;;6240907;23;20152;-81
2023/01/22 06:40:54;;;;;;;20.65;11.40;;;0.70;99.90;;;;;;6241010;23;20175;-84
2023/01/22 06:43:20;;;;;;;30.92;13.73;;;0.80;99.90;;;;;;6240175;23;20173;-85
2023/01/22 06:45:45;;;;;;;28.73;12.87;;;0.70;99.90;;;;;;6241796;23;20152;-84
2023/01/22 06:48:11;;;;;;;30.87;15.70;;;0.60;99.90;;;;;;6248495;22;20137;-83
2023/01/22 06:50:36;;;;;;;26.73;12.60;;;0.60;99.90;;;;;;6251668;22;20164;-82
2023/01/22 06:53:02;;;;;;;23.47;12.93;;;0.60;99.90;;;;;;6241016;23;20259;-84
2023/01/22 06:55:27;;;;;;;30.57;14.00;;;0.60;99.90;;;;;;6239031;23;20145;-81
2023/01/22 06:57:56;;;;;;;25.77;13.00;;;0.60;99.90;;;;;;6239416;23;20149;-85
2023/01/22 07:00:22;;;;;;;22.88;11.88;;;0.60;99.90;;;;;;6236870;23;20149;-82
2023/01/22 07:02:48;;;;;;;26.07;12.80;;;0.50;99.90;;;;;;6237055;23;20156;-81
2023/01/22 07:05:18;;;;;;;25.50;13.25;;;0.50;99.90;;;;;;6244249;23;20440;-86
2023/01/22 07:07:45;;;;;;;21.00;12.70;;;0.50;99.90;;;;;;6239965;23;20155;-81
2023/01/22 07:10:10;;;;;;;24.58;12.85;;;0.30;99.90;;;;;;6239846;23;20240;-85
2023/01/22 07:12:36;;;;;;;31.50;14.43;;;0.40;99.90;;;;;;6238819;23;20216;-83
2023/01/22 07:15:01;;;;;;;35.37;17.20;;;0.40;99.90;;;;;;6239908;23;20751;-84
2023/01/22 07:17:27;;;;;;;33.20;16.10;;;0.40;99.90;;;;;;6249205;23;20251;-82
2023/01/22 07:19:53;;;;;;;25.43;12.60;;;0.60;99.90;;;;;;6240067;23;20217;-84
2023/01/22 07:22:18;;;;;;;28.73;14.13;;;0.80;99.90;;;;;;6238026;23;20172;-83
2023/01/22 07:24:43;;;;;;;28.07;13.57;;;0.80;99.90;;;;;;6237290;23;20169;-85
2023/01/22 07:27:09;;;;;;;22.50;13.17;;;0.90;99.90;;;;;;6240082;23;20153;-85
2023/01/22 07:29:35;;;;;;;21.50;11.77;;;0.90;99.90;;;;;;6238972;23;20137;-83
2023/01/22 07:32:00;;;;;;;25.23;13.10;;;0.80;99.90;;;;;;6233126;23;20149;-85
2023/01/22 07:34:26;;;;;;;25.27;12.97;;;0.90;99.90;;;;;;6234019;23;20184;-84
2023/01/22 07:36:52;;;;;;;27.23;14.47;;;0.90;99.90;;;;;;6236858;23;20924;-83
2023/01/22 07:39:17;;;;;;;28.23;14.20;;;0.90;99.90;;;;;;6240642;23;20240;-83
2023/01/22 07:41:43;;;;;;;29.40;14.60;;;0.90;99.90;;;;;;6241389;23;20180;-84
2023/01/22 07:44:09;;;;;;;24.50;13.73;;;0.90;99.90;;;;;;6241180;23;20165;-81
2023/01/22 07:46:35;;;;;;;26.75;13.30;;;0.90;99.90;;;;;;6238882;23;20322;-82
2023/01/22 07:49:01;;;;;;;22.47;11.23;;;0.90;99.90;;;;;;6239320;23;20194;-82
2023/01/22 07:51:26;;;;;;;27.23;13.90;;;1.00;99.90;;;;;;6239907;22;20708;-84
2023/01/22 07:53:52;;;;;;;36.10;14.40;;;0.90;99.90;;;;;;6240961;23;20188;-85
2023/01/22 07:56:18;;;;;;;27.90;14.00;;;0.80;99.90;;;;;;6235880;23;20519;-82
2023/01/22 07:58:44;;;;;;;23.87;15.20;;;0.80;99.90;;;;;;6237124;23;20586;-82
2023/01/22 08:01:10;;;;;;;26.38;13.13;;;0.90;99.90;;;;;;6237575;23;20152;-82
2023/01/22 08:03:36;;;;;;;28.93;15.03;;;1.00;99.90;;;;;;6245449;22;20241;-81
2023/01/22 08:06:10;;;;;;;26.45;14.18;;;1.20;99.90;;;;;;6237297;22;20164;-82
2023/01/22 08:08:36;;;;;;;28.63;15.45;;;1.30;99.90;;;;;;6238041;22;20140;-81
2023/01/22 08:11:02;;;;;;;25.65;14.45;;;1.40;99.90;;;;;;6235646;23;20156;-81
2023/01/22 08:13:28;;;;;;;25.10;13.40;;;1.40;99.90;;;;;;6235355;23;20245;-83
2023/01/22 08:15:53;;;;;;;22.67;12.60;;;1.40;99.90;;;;;;6233299;23;20936;-84
2023/01/22 08:18:20;;;;;;;22.77;11.00;;;1.40;99.90;;;;;;6236407;23;20176;-84
2023/01/22 08:20:45;;;;;;;27.80;12.77;;;1.40;99.90;;;;;;6253081;22;20386;-83
2023/01/22 08:23:11;;;;;;;22.23;12.43;;;1.30;99.90;;;;;;6238036;23;20177;-82
2023/01/22 08:25:37;;;;;;;21.77;12.80;;;1.30;99.90;;;;;;6239840;22;20368;-81
2023/01/22 08:28:03;;;;;;;25.30;13.17;;;1.50;99.90;;;;;;6239808;23;20186;-84
2023/01/22 08:30:29;;;;;;;27.80;13.80;;;1.60;99.90;;;;;;6240490;23;20572;-83
2023/01/22 08:32:55;;;;;;;24.07;12.43;;;1.60;99.90;;;;;;6256188;22;20654;-80
2023/01/22 08:35:20;;;;;;;23.53;12.97;;;1.60;99.90;;;;;;6258790;23;20591;-82
2023/01/22 08:37:46;;;;;;;27.97;13.87;;;1.50;99.90;;;;;;6263272;23;20176;-82
2023/01/22 08:40:12;;;;;;;27.73;13.47;;;1.50;99.90;;;;;;6261821;23;20155;-83
2023/01/22 08:42:38;;;;;;;22.65;13.45;;;1.50;99.90;;;;;;6261791;23;20660;-82
2023/01/22 08:45:05;;;;;;;26.60;11.75;;;1.40;99.90;;;;;;6255955;23;20180;-82
2023/01/22 08:47:30;;;;;;;24.83;13.50;;;1.40;99.90;;;;;;6260090;22;20149;-85
2023/01/22 08:49:56;;;;;;;27.93;14.20;;;1.30;99.90;;;;;;6256269;23;20207;-82
2023/01/22 08:52:22;;;;;;;25.77;13.40;;;1.20;99.90;;;;;;6257870;23;20164;-83
2023/01/22 08:54:47;;;;;;;26.30;12.37;;;1.40;99.90;;;;;;6258241;23;20159;-81
2023/01/22 08:57:13;;;;;;;24.03;11.73;;;1.40;99.90;;;;;;6254795;23;20368;-83
2023/01/22 08:59:39;;;;;;;22.53;11.50;;;1.30;99.90;;;;;;6246361;23;20581;-82
2023/01/22 09:02:05;;;;;;;21.20;12.57;;;1.30;99.90;;;;;;6239113;22;20141;-84
2023/01/22 09:04:30;;;;;;;26.88;13.77;;;1.30;99.90;;;;;;6235507;23;20407;-82
2023/01/22 09:06:56;;;;;;;22.10;10.80;;;1.20;99.90;;;;;;6258081;23;20149;-81
2023/01/22 09:09:22;;;;;;;25.87;12.40;;;1.20;99.90;;;;;;6246251;23;20149;-83
2023/01/22 09:11:47;;;;;;;21.03;11.87;;;1.30;99.90;;;;;;6243803;23;20152;-82
2023/01/22 09:14:13;;;;;;;25.03;11.93;;;1.50;99.90;;;;;;6242859;23;20431;-82
2023/01/22 09:16:39;;;;;;;23.40;12.63;;;1.50;99.90;;;;;;6239357;23;20153;-82
2023/01/22 09:19:05;;;;;;;22.23;12.07;;;1.40;99.90;;;;;;6256418;22;20430;-81
2023/01/22 09:21:36;;;;;;;26.98;13.00;;;1.40;99.90;;;;;;6238135;23;20382;-82
2023/01/22 09:24:02;;;;;;;25.83;12.30;;;1.30;99.90;;;;;;6239056;22;20174;-83
2023/01/22 09:26:27;;;;;;;24.77;12.43;;;1.40;99.90;;;;;;6239619;23;20563;-84
2023/01/22 09:28:53;;;;;;;24.23;12.93;;;1.70;99.90;;;;;;6240110;23;20248;-83
2023/01/22 09:31:18;;;;;;;17.90;10.57;;;1.60;99.90;;;;;;6230166;23;20156;-84
2023/01/22 09:33:44;;;;;;;21.80;12.97;;;1.70;99.90;;;;;;6236566;23;20262;-84
2023/01/22 09:36:14;;;;;;;22.30;11.10;;;1.90;99.90;;;;;;6238925;23;20149;-82
2023/01/22 09:38:40;;;;;;;28.85;12.40;;;1.90;99.90;;;;;;6239318;23;20220;-84
2023/01/22 09:41:22;;;;;;;26.67;13.95;;;1.70;99.90;;;;;;6240664;23;20534;-84
2023/01/22 09:43:56;;;;;;;26.95;13.10;;;1.70;99.90;;;;;;6240104;23;20577;-84
2023/01/22 09:46:27;;;;;;;21.45;12.52;;;1.70;99.90;;;;;;6234207;23;20152;-83
2023/01/22 09:48:59;;;;;;;23.90;13.60;;;1.70;99.90;;;;;;6231156;23;20153;-84
2023/01/22 09:51:25;;;;;;;22.60;13.45;;;1.60;99.90;;;;;;6228594;23;20161;-84
2023/01/22 09:53:55;;;;;;;22.27;12.30;;;1.30;99.90;;;;;;6233250;23;20188;-82
2023/01/22 09:56:29;;;;;;;26.58;13.73;;;1.30;99.90;;;;;;6245459;23;20148;-82
2023/01/22 09:58:58;;;;;;;25.58;12.85;;;1.40;99.90;;;;;;6235540;23;20153;-84
2023/01/22 10:01:25;;;;;;;29.73;13.25;;;1.40;99.90;;;;;;6234201;23;20175;-84
2023/01/22 10:03:55;;;;;;;21.52;12.77;;;1.40;99.90;;;;;;6237159;22;20253;-82
2023/01/22 10:06:22;;;;;;;20.88;11.85;;;1.50;99.90;;;;;;6232743;22;20140;-83
2023/01/22 10:09:08;;;;;;;21.40;11.68;;;1.70;99.90;;;;;;6228202;23;20152;-82
2023/01/22 10:11:35;;;;;;;24.45;12.50;;;2.00;99.90;;;;;;6229192;23;20210;-81
2023/01/22 10:14:01;;;;;;;21.90;11.85;;;2.10;99.90;;;;;;6227827;23;20215;-83
2023/01/22 10:16:27;;;;;;;19.08;10.50;;;2.10;99.90;;;;;;6227408;23;20152;-82
2023/01/22 10:19:17;;;;;;;22.92;12.10;;;2.00;99.90;;;;;;6227937;23;20188;-84
2023/01/22 10:21:54;;;;;;;23.08;10.90;;;1.90;99.90;;;;;;6230198;23;20177;-81
2023/01/22 10:24:20;;;;;;;18.95;11.52;;;2.00;99.90;;;;;;6239143;23;20274;-86
2023/01/22 10:26:51;;;;;;;17.83;10.63;;;1.90;99.90;;;;;;6229866;23;20190;-83
2023/01/22 10:29:23;;;;;;;18.48;10.75;;;2.00;99.90;;;;;;6231867;23;20156;-81
2023/01/22 10:31:55;;;;;;;20.85;9.90;;;2.10;99.90;;;;;;6230470;22;20149;-81
2023/01/22 10:34:26;;;;;;;22.90;11.32;;;2.30;99.90;;;;;;6238760;22;20203;-82
2023/01/22 10:36:53;;;;;;;17.85;9.13;;;2.40;99.90;;;;;;6233437;23;20149;-82
2023/01/22 10:39:22;;;;;;;17.60;9.95;;;2.50;99.90;;;;;;6228106;22;21089;-83
2023/01/22 10:41:48;;;;;;;18.85;10.15;;;2.50;99.90;;;;;;6220861;23;20160;-83
2023/01/22 10:44:21;;;;;;;13.15;8.65;;;2.60;99.90;;;;;;6228280;23;20204;-83
2023/01/22 10:46:48;;;;;;;17.13;8.85;;;2.70;99.90;;;;;;6228134;23;20211;-83
2023/01/22 10:49:34;;;;;;;12.90;7.65;;;2.60;99.90;;;;;;6227062;22;20147;-82
2023/01/22 10:52:05;;;;;;;13.73;7.32;;;2.60;99.90;;;;;;6225952;23;20159;-82
2023/01/22 10:54:35;;;;;;;11.77;6.85;;;2.40;99.90;;;;;;6227125;22;20229;-82
2023/01/22 10:57:20;;;;;;;9.07;6.40;;;2.20;99.90;;;;;;6229088;23;20153;-82
2023/01/22 11:00:17;;;;;;;12.10;6.88;;;2.30;99.90;;;;;;6228217;23;20501;-82
2023/01/22 11:02:46;;;;;;;11.60;7.05;;;2.30;99.90;;;;;;6240529;22;20184;-83
2023/01/22 11:05:21;;;;;;;13.27;8.25;;;2.20;99.90;;;;;;6227221;23;20176;-82
2023/01/22 11:07:51;;;;;;;16.02;9.15;;;2.30;99.90;;;;;;6231632;22;20985;-83
2023/01/22 11:10:22;;;;;;;11.57;7.20;;;2.60;99.90;;;;;;6231249;22;20148;-81
2023/01/22 11:12:59;;;;;;;12.65;7.90;;;2.70;99.90;;;;;;6226158;23;20239;-81
2023/01/22 11:15:37;;;;;;;11.32;6.32;;;2.80;99.90;;;;;;6233919;22;20571;-83
2023/01/22 11:18:04;;;;;;;13.13;7.05;;;2.80;99.90;;;;;;6234695;22;20229;-81
2023/01/22 11:20:53;;;;;;;12.90;7.10;;;3.00;99.90;;;;;;6232278;23;20159;-82
2023/01/22 11:23:51;;;;;;;11.40;6.65;;;3.10;99.90;;;;;;6231722;23;20582;-82
2023/01/22 11:26:38;;;;;;;12.05;7.22;;;3.20;99.90;;;;;;6229602;23;20156;-82
2023/01/22 11:29:45;;;;;;;11.60;7.05;;;3.30;99.90;;;;;;6228297;23;20152;-83
2023/01/22 11:32:31;;;;;;;9.80;6.75;;;2.90;99.90;;;;;;6109781;23;20247;-83
2023/01/22 11:35:02;;;;;;;11.07;6.85;;;2.90;99.90;;;;;;6085495;23;20182;-83
2023/01/22 11:37:46;;;;;;;9.35;6.05;;;3.00;99.90;;;;;;6168605;23;20156;-82
2023/01/22 11:40:39;;;;;;;10.73;6.70;;;3.30;99.90;;;;;;6231210;23;20125;-79
2023/01/22 11:43:17;;;;;;;8.60;5.93;;;3.40;99.90;;;;;;6231095;23;20154;-83
2023/01/22 11:45:55;;;;;;;10.18;6.05;;;3.10;99.90;;;;;;6229510;23;20885;-82
2023/01/22 11:48:32;;;;;;;8.10;5.57;;;3.20;99.90;;;;;;6230940;23;20154;-78
2023/01/22 11:51:30;;;;;;;6.30;5.05;;;3.00;99.90;;;;;;6248739;22;20149;-81
2023/01/22 11:54:05;;;;;;;8.43;5.75;;;2.80;99.90;;;;;;6234297;23;20192;-84
2023/01/22 11:56:52;;;;;;;9.18;5.80;;;2.90;99.90;;;;;;6232816;23;20503;-83
2023/01/22 11:59:49;;;;;;;10.10;6.20;;;3.00;99.90;;;;;;6231379;23;20167;-84
2023/01/22 12:02:55;;;;;;;7.70;6.05;;;2.90;99.90;;;;;;6235581;23;20149;-85
2023/01/22 12:05:40;;;;;;;6.32;4.95;;;3.00;99.90;;;;;;6200041;22;20234;-84
2023/01/22 12:08:27;;;;;;;8.02;5.57;;;3.20;99.90;;;;;;6232579;23;20220;-85
2023/01/22 12:11:09;;;;;;;7.88;5.32;;;3.10;99.90;;;;;;6235059;23;20171;-84
2023/01/22 12:13:59;;;;;;;7.65;5.18;;;3.30;99.90;;;;;;6234011;23;20184;-81
2023/01/22 12:16:42;;;;;;;5.80;4.22;;;3.20;99.90;;;;;;6230484;23;20149;-80
2023/01/22 12:19:46;;;;;;;3.90;3.08;;;3.30;99.90;;;;;;6235910;22;20145;-81
2023/01/22 12:22:28;;;;;;;6.85;4.65;;;3.20;99.90;;;;;;6189075;22;20182;-86
2023/01/22 12:25:29;;;;;;;7.38;5.13;;;3.20;99.90;;;;;;6236695;23;20777;-81
2023/01/22 12:28:01;;;;;;;6.65;4.35;;;3.40;99.90;;;;;;6234396;23;20147;-83
2023/01/22 12:30:38;;;;;;;6.65;4.85;;;3.40;99.90;;;;;;6238835;22;20172;-81
2023/01/22 12:33:05;;;;;;;4.28;3.88;;;3.50;99.90;;;;;;6238638;22;20175;-84
2023/01/22 12:35:31;;;;;;;4.05;3.65;;;3.70;99.90;;;;;;6234991;22;20133;-83
2023/01/22 12:38:24;;;;;;;4.20;3.80;;;3.90;99.90;;;;;;6237947;23;20199;-82
2023/01/22 12:41:06;;;;;;;4.60;3.65;;;4.00;99.90;;;;;;6239441;22;20367;-84
2023/01/22 12:43:42;;;;;;;5.70;3.92;;;4.10;99.90;;;;;;6237890;23;20191;-81
2023/01/22 12:46:36;;;;;;;4.30;3.85;;;4.20;99.90;;;;;;6235736;23;20218;-83
2023/01/22 12:49:08;;;;;;;6.00;4.95;;;4.20;99.90;;;;;;6233055;23;20997;-85
2023/01/22 12:51:41;;;;;;;4.72;3.45;;;4.10;99.90;;;;;;6232461;23;20149;-81
2023/01/22 12:54:25;;;;;;;4.95;3.53;;;4.00;99.90;;;;;;6231081;23;20716;-82
2023/01/22 12:56:55;;;;;;;4.80;4.35;;;3.90;99.90;;;;;;6234225;23;20152;-79